createdAt,value
2022-10-11T00:01:18.317Z,21.83
2022-10-11T00:03:44.991Z,26.75
2022-10-11T00:06:11.523Z,26.23
2022-10-11T00:08:43.133Z,23.45
2022-10-11T00:11:10.206Z,24.02
2022-10-11T00:13:36.899Z,28.40
2022-10-11T00:16:08.429Z,25.27
2022-10-11T00:18:35.314Z,36.55
2022-10-11T00:21:07.595Z,27.25
2022-10-11T00:23:34.573Z,28.45
2022-10-11T00:26:03.402Z,52.65
2022-10-11T00:28:30.833Z,28.15
2022-10-11T00:30:57.837Z,35.65
2022-10-11T00:33:24.381Z,29.17
2022-10-11T00:35:51.161Z,35.40
2022-10-11T00:38:18.037Z,36.25
2022-10-11T00:40:45.498Z,29.33
2022-10-11T00:43:16.903Z,33.38
2022-10-11T00:45:56.757Z,31.70
2022-10-11T00:48:29.459Z,26.27
2022-10-11T00:50:58.172Z,43.65
2022-10-11T00:53:25.342Z,35.53
2022-10-11T00:55:55.535Z,35.05
2022-10-11T00:58:22.620Z,25.40
2022-10-11T01:00:49.387Z,27.88
2022-10-11T01:03:17.780Z,28.40
2022-10-11T01:05:44.420Z,38.45
2022-10-11T01:08:10.988Z,33.42
2022-10-11T01:10:37.651Z,31.05
2022-10-11T01:13:32.109Z,34.38
2022-10-11T01:16:12.987Z,28.02
2022-10-11T01:19:07.292Z,27.08
2022-10-11T01:22:09.228Z,29.90
2022-10-11T01:25:03.865Z,39.05
2022-10-11T01:28:12.370Z,35.90
2022-10-11T01:30:39.235Z,36.45
2022-10-11T01:33:19.417Z,28.38
2022-10-11T01:36:07.141Z,36.67
2022-10-11T01:38:34.097Z,25.45
2022-10-11T01:41:13.821Z,28.15
2022-10-11T01:43:41.432Z,27.23
2022-10-11T01:46:08.936Z,36.67
2022-10-11T01:48:53.734Z,31.20
2022-10-11T01:51:23.219Z,25.25
2022-10-11T01:54:05.126Z,30.70
2022-10-11T01:56:43.276Z,32.08
2022-10-11T01:59:31.289Z,33.15
2022-10-11T02:02:23.239Z,30.95
2022-10-11T02:05:06.800Z,27.17
2022-10-11T02:07:39.307Z,29.35
2022-10-11T02:10:27.995Z,17.92
2022-10-11T02:13:07.707Z,23.27
2022-10-11T02:15:36.966Z,19.42
2022-10-11T02:18:07.274Z,26.35
2022-10-11T02:20:34.516Z,29.13
2022-10-11T02:23:06.511Z,30.35
2022-10-11T02:25:35.596Z,24.75
2022-10-11T02:28:05.768Z,29.27
2022-10-11T02:30:32.880Z,20.85
2022-10-11T02:33:03.599Z,24.15
2022-10-11T02:35:31.430Z,20.75
2022-10-11T02:38:22.756Z,27.63
2022-10-11T02:43:30.540Z,23.77
2022-10-11T02:46:01.342Z,23.48
2022-10-11T02:48:29.293Z,27.65
2022-10-11T02:50:57.225Z,25.92
2022-10-11T02:53:24.834Z,23.65
2022-10-11T02:55:52.812Z,26.75
2022-10-11T02:58:19.523Z,22.60
2022-10-11T03:00:46.300Z,30.08
2022-10-11T03:03:12.749Z,28.00
2022-10-11T03:05:41.847Z,27.70
2022-10-11T03:08:09.874Z,24.75
2022-10-11T03:10:37.518Z,31.92
2022-10-11T03:13:04.030Z,25.00
2022-10-11T03:15:30.723Z,32.30
2022-10-11T03:17:57.336Z,34.17
2022-10-11T03:20:24.851Z,26.90
2022-10-11T03:22:51.328Z,27.70
2022-10-11T03:25:18.198Z,30.88
2022-10-11T03:27:44.649Z,33.63
2022-10-11T03:30:16.104Z,21.45
2022-10-11T03:32:44.489Z,24.35
2022-10-11T03:35:11.014Z,22.98
2022-10-11T03:37:37.833Z,19.42
2022-10-11T03:40:06.151Z,23.27
2022-10-11T03:42:32.629Z,21.13
2022-10-11T03:45:01.828Z,33.08
2022-10-11T03:47:28.409Z,24.40
2022-10-11T03:49:54.929Z,35.42
2022-10-11T03:52:21.452Z,128.98
2022-10-11T03:54:48.062Z,55.13
2022-10-11T03:57:14.867Z,65.47
2022-10-11T03:59:41.373Z,28.45
2022-10-11T04:02:08.017Z,99.57
2022-10-11T04:04:34.886Z,22.38
2022-10-11T04:07:01.382Z,24.10
2022-10-11T04:09:28.065Z,24.25
2022-10-11T04:11:54.547Z,29.30
2022-10-11T04:14:21.061Z,23.02
2022-10-11T04:16:47.614Z,26.45
2022-10-11T04:19:14.198Z,29.23
2022-10-11T04:21:40.745Z,28.23
2022-10-11T04:24:07.424Z,21.65
2022-10-11T04:26:34.038Z,19.30
2022-10-11T04:29:00.518Z,25.92
2022-10-11T04:31:27.066Z,21.60
2022-10-11T04:33:53.528Z,19.33
2022-10-11T04:36:20.042Z,22.48
2022-10-11T04:38:46.546Z,19.77
2022-10-11T04:41:14.611Z,27.50
2022-10-11T04:43:41.313Z,23.95
2022-10-11T04:46:08.487Z,23.45
2022-10-11T04:48:35.806Z,23.40
2022-10-11T04:51:02.349Z,21.15
2022-10-11T04:53:29.012Z,24.33
2022-10-11T04:56:01.168Z,23.30
2022-10-11T04:58:28.911Z,21.35
2022-10-11T05:00:56.294Z,18.05
2022-10-11T05:03:23.101Z,25.15
2022-10-11T05:05:49.622Z,26.10
2022-10-11T05:08:16.294Z,21.80
2022-10-11T05:10:42.902Z,28.65
2022-10-11T05:13:09.517Z,25.92
2022-10-11T05:15:35.996Z,24.88
2022-10-11T05:18:02.499Z,20.20
2022-10-11T05:20:29.008Z,31.60
2022-10-11T05:22:55.563Z,22.67
2022-10-11T05:25:22.021Z,22.35
2022-10-11T05:27:48.678Z,23.48
2022-10-11T05:30:15.413Z,29.40
2022-10-11T05:32:41.959Z,31.15
2022-10-11T05:35:08.863Z,33.50
2022-10-11T05:37:35.459Z,68.95
2022-10-11T05:40:02.105Z,37.53
2022-10-11T05:42:28.588Z,48.33
2022-10-11T05:44:55.079Z,33.95
2022-10-11T05:47:21.554Z,35.63
2022-10-11T05:49:48.118Z,28.73
2022-10-11T05:52:19.655Z,32.03
2022-10-11T05:54:46.213Z,33.08
2022-10-11T05:57:12.730Z,25.73
2022-10-11T05:59:39.219Z,35.67
2022-10-11T06:02:06.254Z,34.38
2022-10-11T06:04:36.981Z,26.23
2022-10-11T06:07:03.844Z,33.42
2022-10-11T06:09:30.798Z,33.22
2022-10-11T06:11:57.613Z,31.27
2022-10-11T06:14:24.277Z,35.05
2022-10-11T06:16:50.798Z,23.35
2022-10-11T06:19:17.337Z,29.65
2022-10-11T06:21:45.682Z,32.60
2022-10-11T06:24:12.959Z,29.65
2022-10-11T06:26:39.870Z,42.50
2022-10-11T06:29:06.639Z,26.70
2022-10-11T06:31:33.168Z,43.60
2022-10-11T06:33:59.737Z,33.03
2022-10-11T06:36:26.713Z,40.63
2022-10-11T06:38:54.876Z,43.50
2022-10-11T06:41:29.417Z,44.00
2022-10-11T06:43:56.777Z,33.83
2022-10-11T06:46:25.228Z,38.70
2022-10-11T06:48:52.349Z,33.03
2022-10-11T06:51:21.093Z,38.47
2022-10-11T06:53:52.639Z,38.58
2022-10-11T06:56:19.294Z,35.10
2022-10-11T06:58:46.087Z,35.58
2022-10-11T07:01:16.215Z,30.83
2022-10-11T07:03:42.796Z,29.05
2022-10-11T07:06:11.544Z,36.45
2022-10-11T07:08:38.366Z,32.63
2022-10-11T07:11:08.602Z,35.42
2022-10-11T07:13:36.182Z,34.00
2022-10-11T07:16:08.466Z,34.28
2022-10-11T07:18:35.549Z,21.42
2022-10-11T07:21:03.810Z,24.45
2022-10-11T07:23:30.376Z,19.42
2022-10-11T07:25:56.934Z,18.58
2022-10-11T07:28:24.505Z,21.48
2022-10-11T07:30:51.324Z,16.80
2022-10-11T07:33:17.839Z,21.33
2022-10-11T07:35:48.248Z,14.77
2022-10-11T07:38:15.760Z,24.48
2022-10-11T07:40:46.398Z,13.77
2022-10-11T07:43:13.762Z,24.02
2022-10-11T07:45:41.939Z,19.20
2022-10-11T07:48:08.999Z,18.02
2022-10-11T07:50:35.541Z,14.55
2022-10-11T07:53:02.081Z,18.60
2022-10-11T07:55:30.228Z,18.60
2022-10-11T07:57:57.514Z,17.77
2022-10-11T08:00:24.271Z,20.67
2022-10-11T08:02:50.806Z,14.68
2022-10-11T08:05:17.481Z,17.48
2022-10-11T08:07:44.087Z,18.50
2022-10-11T08:10:10.735Z,14.27
2022-10-11T08:12:38.772Z,16.77
2022-10-11T08:15:05.796Z,14.80
2022-10-11T08:17:32.264Z,18.20
2022-10-11T08:19:58.789Z,15.35
2022-10-11T08:22:25.381Z,15.85
2022-10-11T08:24:51.991Z,18.60
2022-10-11T08:27:18.589Z,21.15
2022-10-11T08:29:45.091Z,19.33
2022-10-11T08:32:12.362Z,22.95
2022-10-11T08:34:38.820Z,25.48
2022-10-11T08:37:05.454Z,25.80
2022-10-11T08:39:32.047Z,31.85
2022-10-11T08:42:15.651Z,35.17
2022-10-11T08:45:09.909Z,38.97
2022-10-11T08:47:39.947Z,39.05
2022-10-11T08:50:08.232Z,46.45
2022-10-11T08:52:37.580Z,64.28
2022-10-11T08:55:16.422Z,70.95
2022-10-11T08:57:45.745Z,72.03
2022-10-11T09:00:17.551Z,84.75
2022-10-11T09:03:15.781Z,88.78
2022-10-11T09:06:03.877Z,92.80
2022-10-11T09:08:36.321Z,100.63
2022-10-11T09:11:11.181Z,104.10
2022-10-11T09:14:02.797Z,108.93
2022-10-11T09:19:40.528Z,121.35
2022-10-11T09:22:30.213Z,115.57
2022-10-11T09:25:18.586Z,100.15
2022-10-11T09:28:02.440Z,107.22
2022-10-11T09:30:30.450Z,104.75
2022-10-11T09:33:09.117Z,102.50
2022-10-11T09:35:44.332Z,96.28
2022-10-11T09:38:39.764Z,94.30
2022-10-11T09:41:13.273Z,92.53
2022-10-11T09:43:39.832Z,86.43
2022-10-11T09:46:37.075Z,86.32
2022-10-11T09:49:09.158Z,81.07
2022-10-11T09:51:36.632Z,75.05
2022-10-11T09:54:06.340Z,75.85
2022-10-11T09:56:34.650Z,69.13
2022-10-11T09:59:23.239Z,66.88
2022-10-11T10:01:49.830Z,71.43
2022-10-11T10:04:17.055Z,76.30
2022-10-11T10:06:43.780Z,75.30
2022-10-11T10:09:25.650Z,77.97
2022-10-11T10:11:54.064Z,77.82
2022-10-11T10:14:40.516Z,89.97
2022-10-11T10:17:15.945Z,91.07
2022-10-11T10:19:49.474Z,96.72
2022-10-11T10:22:24.185Z,94.57
2022-10-11T10:24:51.557Z,87.38
2022-10-11T10:27:23.087Z,105.47
2022-10-11T10:30:10.193Z,94.00
2022-10-11T10:32:59.975Z,81.80
2022-10-11T10:35:45.501Z,70.90
2022-10-11T10:38:21.732Z,69.68
2022-10-11T10:40:52.553Z,65.43
2022-10-11T10:43:21.848Z,66.63
2022-10-11T10:45:57.599Z,63.63
2022-10-11T10:49:19.118Z,65.43
2022-10-11T10:51:43.112Z,71.55
2022-10-11T10:54:38.140Z,61.30
2022-10-11T10:57:14.223Z,71.55
2022-10-11T11:00:13.241Z,66.90
2022-10-11T11:02:59.940Z,68.20
2022-10-11T11:05:43.032Z,58.92
2022-10-11T11:08:16.647Z,56.88
2022-10-11T11:10:56.617Z,54.97
2022-10-11T11:13:33.712Z,65.18
2022-10-11T11:16:12.090Z,59.65
2022-10-11T11:19:00.243Z,65.03
2022-10-11T11:21:47.525Z,59.60
2022-10-11T11:24:24.096Z,58.45
2022-10-11T11:26:50.574Z,59.17
2022-10-11T11:29:26.434Z,49.95
2022-10-11T11:32:08.702Z,52.40
2022-10-11T11:34:47.003Z,47.85
2022-10-11T11:37:22.036Z,51.30
2022-10-11T11:39:50.316Z,48.95
2022-10-11T11:42:26.422Z,45.60
2022-10-11T11:44:53.543Z,41.67
2022-10-11T11:47:25.263Z,42.22
2022-10-11T11:49:56.051Z,42.33
2022-10-11T11:52:46.207Z,37.53
2022-10-11T11:55:28.415Z,31.42
2022-10-11T11:57:57.730Z,28.60
2022-10-11T12:00:27.941Z,33.15
2022-10-11T12:03:00.544Z,33.35
2022-10-11T12:05:30.589Z,27.33
2022-10-11T12:08:03.193Z,31.00
2022-10-11T12:10:36.462Z,30.35
2022-10-11T12:13:08.189Z,29.55
2022-10-11T12:15:35.660Z,30.38
2022-10-11T12:18:05.768Z,19.05
2022-10-11T12:20:37.036Z,23.50
2022-10-11T12:23:10.122Z,23.55
2022-10-11T12:26:15.227Z,18.95
2022-10-11T12:28:41.977Z,28.35
2022-10-11T12:31:19.646Z,20.30
2022-10-11T12:33:46.030Z,20.10
2022-10-11T12:36:35.637Z,20.67
2022-10-11T12:39:20.311Z,27.25
2022-10-11T12:41:49.437Z,20.52
2022-10-11T12:44:18.594Z,21.33
2022-10-11T12:46:50.933Z,19.83
2022-10-11T12:49:57.331Z,19.65
2022-10-11T12:52:32.309Z,19.17
2022-10-11T12:55:03.509Z,23.25
2022-10-11T13:00:30.867Z,18.15
2022-10-11T13:03:42.313Z,24.08
2022-10-11T13:06:14.291Z,22.98
2022-10-11T13:08:43.616Z,26.48
2022-10-11T13:11:17.899Z,23.45
2022-10-11T13:13:50.037Z,23.75
2022-10-11T13:16:20.570Z,21.17
2022-10-11T13:18:49.413Z,29.23
2022-10-11T13:21:26.896Z,23.92
2022-10-11T13:24:02.327Z,31.83
2022-10-11T13:26:30.163Z,26.55
2022-10-11T13:28:57.645Z,30.25
2022-10-11T13:31:25.018Z,35.60
2022-10-11T13:33:55.058Z,31.80
2022-10-11T13:36:22.917Z,24.38
2022-10-11T13:38:57.545Z,25.67
2022-10-11T13:41:26.959Z,38.40
2022-10-11T13:43:55.496Z,32.47
2022-10-11T13:46:27.302Z,27.92
2022-10-11T13:49:01.593Z,38.03
2022-10-11T13:51:34.069Z,30.92
2022-10-11T13:54:07.193Z,30.00
2022-10-11T13:56:50.843Z,35.40
2022-10-11T14:01:55.637Z,29.23
2022-10-11T14:04:26.093Z,34.38
2022-10-11T14:07:02.201Z,29.88
2022-10-11T14:09:34.811Z,32.22
2022-10-11T14:12:43.019Z,32.63
2022-10-11T14:15:28.315Z,27.98
2022-10-11T14:17:54.834Z,27.33
2022-10-11T14:20:23.619Z,30.17
2022-10-11T14:22:51.820Z,29.50
2022-10-11T14:25:19.137Z,25.05
2022-10-11T14:27:45.892Z,28.38
2022-10-11T14:30:27.379Z,27.67
2022-10-11T14:32:56.680Z,31.95
2022-10-11T14:35:29.738Z,25.40
2022-10-11T14:37:56.294Z,23.15
2022-10-11T14:40:25.338Z,30.13
2022-10-11T14:42:52.068Z,29.00
2022-10-11T14:45:18.745Z,21.90
2022-10-11T14:47:45.265Z,31.55
2022-10-11T14:50:32.984Z,28.60
2022-10-11T14:52:59.804Z,20.95
2022-10-11T14:55:26.374Z,27.40
2022-10-11T14:57:52.988Z,27.27
2022-10-11T15:00:23.599Z,23.15
2022-10-11T15:02:52.699Z,23.48
2022-10-11T15:05:20.537Z,26.60
2022-10-11T15:07:47.404Z,22.33
2022-10-11T15:10:19.840Z,22.85
2022-10-11T15:12:46.415Z,24.30
2022-10-11T15:15:19.422Z,23.02
2022-10-11T15:17:48.083Z,28.02
2022-10-11T15:20:27.347Z,28.08
2022-10-11T15:22:55.294Z,29.10
2022-10-11T15:25:23.245Z,25.35
2022-10-11T15:27:50.661Z,31.30
2022-10-11T15:30:17.118Z,24.98
2022-10-11T15:32:45.852Z,29.85
2022-10-11T15:35:12.737Z,25.73
2022-10-11T15:37:39.443Z,31.23
2022-10-11T15:40:26.129Z,31.77
2022-10-11T15:42:53.913Z,26.00
2022-10-11T15:45:21.341Z,33.38
2022-10-11T15:47:48.314Z,30.83
2022-10-11T15:50:23.464Z,29.05
2022-10-11T15:52:51.477Z,40.72
2022-10-11T15:55:19.023Z,42.70
2022-10-11T15:57:45.540Z,55.63
2022-10-11T16:00:12.445Z,55.05
2022-10-11T16:02:39.463Z,39.00
2022-10-11T16:05:05.982Z,34.92
2022-10-11T16:07:32.465Z,36.30
2022-10-11T16:09:58.934Z,35.88
2022-10-11T16:12:25.439Z,60.55
2022-10-11T16:14:51.905Z,45.05
2022-10-11T16:17:18.361Z,31.23
2022-10-11T16:19:44.811Z,33.28
2022-10-11T16:22:11.348Z,34.15
2022-10-11T16:24:37.863Z,43.83
2022-10-11T16:27:04.404Z,36.85
2022-10-11T16:29:31.013Z,41.13
2022-10-11T16:31:57.490Z,32.40
2022-10-11T16:34:23.982Z,27.42
2022-10-11T16:36:50.568Z,51.13
2022-10-11T16:39:18.260Z,36.25
2022-10-11T16:41:48.136Z,27.40
2022-10-11T16:44:17.497Z,30.20
2022-10-11T16:46:48.105Z,20.38
2022-10-11T16:49:19.620Z,33.90
2022-10-11T16:51:46.359Z,27.25
2022-10-11T16:54:16.579Z,29.27
2022-10-11T16:56:46.541Z,28.30
2022-10-11T16:59:13.257Z,32.97
2022-10-11T17:01:39.835Z,26.20
2022-10-11T17:04:06.339Z,30.40
2022-10-11T17:06:32.979Z,27.48
2022-10-11T17:08:59.562Z,27.05
2022-10-11T17:11:26.078Z,37.22
2022-10-11T17:13:53.497Z,35.70
2022-10-11T17:16:20.859Z,32.67
2022-10-11T17:18:47.361Z,38.65
2022-10-11T17:21:16.927Z,39.08
2022-10-11T17:23:44.047Z,29.15
2022-10-11T17:26:18.964Z,34.85
2022-10-11T17:28:45.862Z,31.15
2022-10-11T17:31:12.421Z,33.00
2022-10-11T17:33:39.038Z,41.60
2022-10-11T17:36:14.496Z,36.40
2022-10-11T17:38:41.068Z,30.40
2022-10-11T17:41:08.816Z,30.80
2022-10-11T17:43:35.774Z,29.90
2022-10-11T17:46:05.862Z,36.13
2022-10-11T17:48:34.900Z,33.92
2022-10-11T17:51:09.365Z,32.95
2022-10-11T17:53:36.308Z,34.88
2022-10-11T17:56:07.724Z,38.20
2022-10-11T17:58:34.944Z,34.15
2022-10-11T18:01:10.394Z,38.97
2022-10-11T18:03:37.498Z,34.50
2022-10-11T18:06:05.805Z,28.60
2022-10-11T18:08:39.978Z,33.80
2022-10-11T18:11:12.654Z,38.42
2022-10-11T18:13:42.621Z,34.03
2022-10-11T18:16:11.147Z,32.03
2022-10-11T18:18:38.532Z,29.13
2022-10-11T18:21:05.432Z,34.30
2022-10-11T18:23:32.637Z,29.45
2022-10-11T18:25:59.377Z,41.20
2022-10-11T18:28:26.234Z,29.70
2022-10-11T18:30:53.270Z,35.65
2022-10-11T18:33:20.066Z,39.95
2022-10-11T18:35:46.836Z,43.05
2022-10-11T18:38:13.526Z,50.33
2022-10-11T18:40:44.685Z,47.78
2022-10-11T18:43:13.590Z,41.70
2022-10-11T18:45:40.340Z,42.83
2022-10-11T18:48:08.634Z,50.97
2022-10-11T18:50:35.647Z,34.53
2022-10-11T18:55:29.865Z,38.15
2022-10-11T18:57:56.529Z,44.65
2022-10-11T19:00:40.088Z,35.17
2022-10-11T19:03:07.744Z,33.92
2022-10-11T19:05:34.531Z,37.53
2022-10-11T19:08:01.547Z,36.60
2022-10-11T19:10:29.112Z,39.42
2022-10-11T19:12:55.952Z,34.88
2022-10-11T19:15:27.859Z,37.92
2022-10-11T19:17:55.459Z,33.50
2022-10-11T19:20:23.325Z,35.63
2022-10-11T19:22:50.105Z,36.22
2022-10-11T19:25:18.053Z,40.08
2022-10-11T19:27:44.880Z,44.03
2022-10-11T19:30:12.843Z,38.33
2022-10-11T19:32:39.648Z,38.03
2022-10-11T19:35:20.066Z,31.20
2022-10-11T19:37:47.985Z,39.60
2022-10-11T19:40:14.836Z,33.25
2022-10-11T19:42:41.573Z,33.20
2022-10-11T19:45:08.884Z,36.72
2022-10-11T19:47:37.064Z,39.78
2022-10-11T19:50:04.128Z,40.17
2022-10-11T19:52:31.240Z,45.80
2022-10-11T19:55:01.274Z,44.30
2022-10-11T19:57:28.052Z,50.00
2022-10-11T19:59:54.746Z,42.00
2022-10-11T20:02:21.488Z,53.35
2022-10-11T20:04:53.215Z,40.97
2022-10-11T20:07:20.166Z,57.20
2022-10-11T20:09:46.830Z,56.47
2022-10-11T20:12:13.530Z,55.10
2022-10-11T20:14:40.202Z,50.58
2022-10-11T20:17:07.105Z,56.55
2022-10-11T20:19:33.827Z,46.60
2022-10-11T20:22:01.363Z,63.25
2022-10-11T20:24:32.536Z,61.45
2022-10-11T20:27:01.163Z,47.95
2022-10-11T20:29:27.930Z,51.50
2022-10-11T20:31:56.226Z,46.28
2022-10-11T20:34:23.297Z,45.92
2022-10-11T20:36:50.047Z,50.58
2022-10-11T20:39:16.920Z,43.33
2022-10-11T20:41:43.731Z,50.20
2022-10-11T20:44:12.340Z,49.55
2022-10-11T20:46:39.736Z,53.63
2022-10-11T20:49:12.073Z,51.90
2022-10-11T20:51:41.503Z,54.40
2022-10-11T20:54:08.938Z,52.40
2022-10-11T20:56:35.697Z,39.75
2022-10-11T20:59:02.477Z,48.45
2022-10-11T21:01:34.623Z,42.92
2022-10-11T21:04:02.036Z,46.35
2022-10-11T21:06:30.102Z,40.35
2022-10-11T21:08:58.738Z,40.25
2022-10-11T21:11:26.263Z,44.95
2022-10-11T21:13:57.136Z,45.17
2022-10-11T21:16:23.893Z,39.60
2022-10-11T21:18:51.892Z,35.67
2022-10-11T21:21:19.029Z,41.47
2022-10-11T21:23:45.589Z,41.60
2022-10-11T21:26:13.220Z,42.33
2022-10-11T21:28:41.182Z,44.67
2022-10-11T21:31:15.375Z,42.78
2022-10-11T21:33:43.310Z,37.33
2022-10-11T21:36:12.218Z,44.70
2022-10-11T21:38:38.765Z,39.60
2022-10-11T21:41:10.553Z,39.72
2022-10-11T21:43:38.227Z,46.10
2022-10-11T21:46:41.684Z,38.47
2022-10-11T21:49:12.212Z,42.28
2022-10-11T21:51:38.786Z,40.55
2022-10-11T21:54:05.669Z,37.42
2022-10-11T21:56:32.376Z,39.20
2022-10-11T21:58:58.942Z,39.88
2022-10-11T22:01:25.562Z,50.38
2022-10-11T22:03:55.013Z,37.33
2022-10-11T22:06:21.712Z,42.78
2022-10-11T22:08:49.805Z,44.67
2022-10-11T22:11:16.516Z,46.90
2022-10-11T22:13:43.150Z,61.72
2022-10-11T22:16:12.013Z,75.00
2022-10-11T22:18:38.847Z,86.13
2022-10-11T22:21:09.633Z,69.13
2022-10-11T22:23:36.363Z,69.72
2022-10-11T22:26:04.745Z,68.15
2022-10-11T22:28:31.785Z,82.55
2022-10-11T22:30:58.387Z,66.13
2022-10-11T22:33:25.266Z,67.88
2022-10-11T22:35:58.481Z,73.43
2022-10-11T22:38:26.929Z,67.65
2022-10-11T22:40:53.870Z,69.53
2022-10-11T22:43:20.864Z,61.53
2022-10-11T22:45:47.948Z,50.53
2022-10-11T22:48:14.430Z,49.85
2022-10-11T22:50:41.183Z,63.95
2022-10-11T22:53:08.900Z,59.42
2022-10-11T22:55:35.713Z,61.47
2022-10-11T22:58:02.257Z,56.80
2022-10-11T23:00:28.770Z,46.35
2022-10-11T23:02:55.828Z,47.38
2022-10-11T23:05:22.628Z,43.22
2022-10-11T23:07:49.437Z,42.63
2022-10-11T23:10:16.564Z,38.75
2022-10-11T23:12:43.414Z,30.95
2022-10-11T23:15:10.791Z,32.50
2022-10-11T23:17:37.810Z,28.92
2022-10-11T23:20:05.642Z,31.10
2022-10-11T23:22:32.148Z,34.47
2022-10-11T23:24:58.654Z,34.75
2022-10-11T23:27:25.329Z,38.22
2022-10-11T23:29:51.821Z,32.60
2022-10-11T23:32:18.305Z,34.17
2022-10-11T23:34:44.823Z,36.15
2022-10-11T23:37:11.402Z,34.90
2022-10-11T23:39:38.010Z,32.10
2022-10-11T23:42:04.604Z,32.67
2022-10-11T23:44:31.248Z,32.10
2022-10-11T23:46:57.761Z,35.13
2022-10-11T23:49:24.243Z,28.83
2022-10-11T23:51:50.754Z,34.97
2022-10-11T23:54:17.249Z,33.90
2022-10-11T23:56:43.764Z,36.88
2022-10-11T23:59:10.269Z,32.90
